QTR9Y OTHH-OOMS
Flight info
| Callsign | QTR9Y |
|---|---|
| Flight time | N/A |
| Altitude | 33000 |
| Route | BUNDU B415 RURAL N685 LAKLU G216 MCT |
| Aircraft | A35K/H-SDE2E3GHIJ1J3J4J5LM1ORWXY/LB1D1 |
Departure
| Time | 2026-04-30 14:21 |
|---|---|
| Airport | Hamad International Airport (OTHH) |
Arrival
| Time | N/A |
|---|---|
| Airport | Muscat International Airport (OOMS) |
| Time | Latitude | Longitude | Altitude | Speed | Heading |
|---|---|---|---|---|---|
| 2026-04-30 13:58 | 25.27016 | 51.61354 | 28 ft | 0 kts | 292° |
| 2026-04-30 14:04 | 25.27011 | 51.61367 | 26 ft | 2 kts | 296° |
| 2026-04-30 14:05 | 25.27004 | 51.61383 | 27 ft | 2 kts | 300° |
| 2026-04-30 14:05 | 25.26994 | 51.61398 | 26 ft | 2 kts | 308° |
| 2026-04-30 14:05 | 25.26983 | 51.61412 | 26 ft | 2 kts | 320° |
| 2026-04-30 14:05 | 25.26970 | 51.61422 | 26 ft | 2 kts | 337° |
| 2026-04-30 14:06 | 25.26954 | 51.61427 | 25 ft | 2 kts | 359° |
| 2026-04-30 14:06 | 25.26929 | 51.61422 | 26 ft | 1 kts | 20° |
| 2026-04-30 14:11 | 25.26934 | 51.61424 | 26 ft | 3 kts | 21° |
| 2026-04-30 14:11 | 25.26965 | 51.61442 | 27 ft | 7 kts | 31° |
| 2026-04-30 14:12 | 25.27010 | 51.61488 | 28 ft | 10 kts | 53° |
| 2026-04-30 14:12 | 25.27041 | 51.61565 | 28 ft | 10 kts | 83° |
| 2026-04-30 14:12 | 25.27017 | 51.61608 | 28 ft | 11 kts | 143° |
| 2026-04-30 14:12 | 25.26941 | 51.61649 | 28 ft | 14 kts | 156° |
| 2026-04-30 14:13 | 25.26843 | 51.61692 | 28 ft | 16 kts | 158° |
| 2026-04-30 14:13 | 25.26738 | 51.61738 | 28 ft | 8 kts | 158° |
| 2026-04-30 14:13 | 25.26701 | 51.61755 | 28 ft | 7 kts | 158° |
| 2026-04-30 14:13 | 25.26644 | 51.61782 | 28 ft | 10 kts | 150° |
| 2026-04-30 14:14 | 25.26618 | 51.61848 | 28 ft | 11 kts | 104° |
| 2026-04-30 14:14 | 25.26568 | 51.61913 | 28 ft | 13 kts | 148° |
| 2026-04-30 14:14 | 25.26477 | 51.61958 | 28 ft | 16 kts | 158° |
| 2026-04-30 14:14 | 25.26370 | 51.62006 | 28 ft | 18 kts | 158° |
| 2026-04-30 14:15 | 25.26248 | 51.62059 | 28 ft | 20 kts | 158° |
| 2026-04-30 14:15 | 25.26129 | 51.62111 | 29 ft | 15 kts | 158° |
| 2026-04-30 14:15 | 25.26025 | 51.62155 | 29 ft | 17 kts | 159° |
| 2026-04-30 14:15 | 25.25980 | 51.62215 | 29 ft | 8 kts | 100° |
| 2026-04-30 14:16 | 25.25958 | 51.62276 | 29 ft | 9 kts | 127° |
| 2026-04-30 14:16 | 25.25900 | 51.62320 | 29 ft | 12 kts | 156° |
| 2026-04-30 14:16 | 25.25814 | 51.62359 | 28 ft | 15 kts | 157° |
| 2026-04-30 14:16 | 25.25713 | 51.62405 | 28 ft | 18 kts | 158° |
| 2026-04-30 14:17 | 25.25633 | 51.62439 | 28 ft | 19 kts | 159° |
| 2026-04-30 14:17 | 25.25555 | 51.62473 | 28 ft | 7 kts | 153° |
| 2026-04-30 14:17 | 25.25522 | 51.62512 | 28 ft | 6 kts | 111° |
| 2026-04-30 14:17 | 25.25522 | 51.62517 | 28 ft | 0 kts | 103° |
| 2026-04-30 14:18 | 25.25523 | 51.62523 | 28 ft | 2 kts | 90° |
| 2026-04-30 14:18 | 25.25526 | 51.62560 | 28 ft | 7 kts | 80° |
| 2026-04-30 14:18 | 25.25543 | 51.62598 | 28 ft | 0 kts | 51° |
| 2026-04-30 14:19 | 25.25543 | 51.62599 | 28 ft | 1 kts | 51° |
| 2026-04-30 14:19 | 25.25557 | 51.62611 | 28 ft | 5 kts | 35° |
| 2026-04-30 14:19 | 25.25602 | 51.62632 | 29 ft | 9 kts | 17° |
| 2026-04-30 14:20 | 25.25664 | 51.62619 | 28 ft | 11 kts | 341° |
| 2026-04-30 14:20 | 25.25858 | 51.62541 | 29 ft | 65 kts | 337° |
| 2026-04-30 14:20 | 25.27573 | 51.61800 | 48 ft | 191 kts | 340° |
| 2026-04-30 14:21 | 25.28921 | 51.61319 | 474 ft | 215 kts | 343° |
| 2026-04-30 14:21 | 25.30442 | 51.60801 | 1045 ft | 243 kts | 342° |
| 2026-04-30 14:21 | 25.34053 | 51.59501 | 1977 ft | 297 kts | 356° |
| 2026-04-30 14:22 | 25.36147 | 51.59281 | 2485 ft | 316 kts | 351° |
| 2026-04-30 14:22 | 25.40581 | 51.59118 | 3268 ft | 311 kts | 17° |
| 2026-04-30 14:22 | 25.42674 | 51.59962 | 1138 ft | 324 kts | 45° |